Terminal Aerodrome Forecast
Issued by NWS Northern Indiana

Home | Current Version | Previous Version | Text Only | Print | Product List | Glossary Off
Versions: 1 2 3 4 5 6 7 8 9 10 11 12 13 14

000
FTUS43 KIWX 230500
TAFFWA
TAF
KFWA 230520Z 2306/2406 09010KT 6SM BR VCSH OVC040
      TEMPO 2306/2309 5SM -SHRA OVC025
     FM230900 11012KT 4SM -RA BR OVC015
     FM231100 15010KT 2SM -SHRA BR OVC007
     FM231600 20008KT 5SM BR BKN015 OVC150=

USA.gov is the U.S. government's official web portal to all federal, state and local government web resources and services.